Terminal Aerodrome Forecast
Issued by NWS

Home | Current Version | Previous Version | Text Only | Print | Product List | Glossary On
Versions: 1 2 3 4 5 6 7 8 9 10 11 12 13 14 15 16 17 18 19 20 21 22 23
000
FTUS46 KSEW 280500
TAFBLI
TAF
KBLI 280540Z 2806/2906 17005KT P6SM BKN025
      TEMPO 2806/2808 SCT025
     FM280900 VRB03KT P6SM OVC015
     FM281200 00000KT 5SM BR OVC008
      TEMPO 2812/2816 1/2SM BCFG OVC002
     FM281800 04003KT P6SM OVC018
     FM282000 34004KT P6SM BKN050=

USA.gov is the U.S. government's official web portal to all federal, state and local government web resources and services.